sensor_id;sensor_type;location;lat;lon;timestamp;temperature;humidity
39099;DHT22;24844;52.380;7.018;2023-11-18T00:00:15;2.70;99.90
39099;DHT22;24844;52.380;7.018;2023-11-18T00:02:42;2.70;99.90
39099;DHT22;24844;52.380;7.018;2023-11-18T00:05:09;2.80;99.90
39099;DHT22;24844;52.380;7.018;2023-11-18T00:07:35;2.90;99.90
39099;DHT22;24844;52.380;7.018;2023-11-18T00:10:00;3.00;99.90
39099;DHT22;24844;52.380;7.018;2023-11-18T00:12:26;2.70;99.90
39099;DHT22;24844;52.380;7.018;2023-11-18T00:14:52;2.70;99.90
39099;DHT22;24844;52.380;7.018;2023-11-18T00:17:17;2.50;99.90
39099;DHT22;24844;52.380;7.018;2023-11-18T00:19:43;2.60;99.90
39099;DHT22;24844;52.380;7.018;2023-11-18T00:22:10;2.50;99.90
39099;DHT22;24844;52.380;7.018;2023-11-18T00:24:37;2.50;99.90
39099;DHT22;24844;52.380;7.018;2023-11-18T00:27:03;2.50;99.90
39099;DHT22;24844;52.380;7.018;2023-11-18T00:29:32;2.60;99.90
39099;DHT22;24844;52.380;7.018;2023-11-18T00:31:58;2.60;99.90
39099;DHT22;24844;52.380;7.018;2023-11-18T00:34:24;2.60;99.90
39099;DHT22;24844;52.380;7.018;2023-11-18T00:36:49;2.60;99.90
39099;DHT22;24844;52.380;7.018;2023-11-18T00:39:15;2.70;99.90
39099;DHT22;24844;52.380;7.018;2023-11-18T00:41:40;2.80;99.90
39099;DHT22;24844;52.380;7.018;2023-11-18T00:44:06;2.60;99.90
39099;DHT22;24844;52.380;7.018;2023-11-18T00:46:32;2.70;99.90
39099;DHT22;24844;52.380;7.018;2023-11-18T00:49:01;2.60;99.90
39099;DHT22;24844;52.380;7.018;2023-11-18T00:51:27;2.50;99.90
39099;DHT22;24844;52.380;7.018;2023-11-18T00:53:53;2.50;99.90
39099;DHT22;24844;52.380;7.018;2023-11-18T00:56:20;2.50;99.90
39099;DHT22;24844;52.380;7.018;2023-11-18T00:58:47;2.60;99.90
39099;DHT22;24844;52.380;7.018;2023-11-18T01:01:13;2.50;99.90
39099;DHT22;24844;52.380;7.018;2023-11-18T01:03:39;2.60;99.90
39099;DHT22;24844;52.380;7.018;2023-11-18T01:06:05;2.50;99.90
39099;DHT22;24844;52.380;7.018;2023-11-18T01:08:31;2.70;99.90
39099;DHT22;24844;52.380;7.018;2023-11-18T01:10:57;2.70;99.90
39099;DHT22;24844;52.380;7.018;2023-11-18T01:13:23;2.70;99.90
39099;DHT22;24844;52.380;7.018;2023-11-18T01:15:49;2.70;99.90
39099;DHT22;24844;52.380;7.018;2023-11-18T01:18:14;2.70;99.90
39099;DHT22;24844;52.380;7.018;2023-11-18T01:20:40;2.60;99.90
39099;DHT22;24844;52.380;7.018;2023-11-18T01:23:06;2.70;99.90
39099;DHT22;24844;52.380;7.018;2023-11-18T01:25:31;2.80;99.90
39099;DHT22;24844;52.380;7.018;2023-11-18T01:27:57;2.90;99.90
39099;DHT22;24844;52.380;7.018;2023-11-18T01:30:22;2.90;99.90
39099;DHT22;24844;52.380;7.018;2023-11-18T01:32:49;2.90;99.90
39099;DHT22;24844;52.380;7.018;2023-11-18T01:35:15;2.90;99.90
39099;DHT22;24844;52.380;7.018;2023-11-18T01:37:40;2.80;99.90
39099;DHT22;24844;52.380;7.018;2023-11-18T01:40:06;2.70;99.90
39099;DHT22;24844;52.380;7.018;2023-11-18T01:42:44;2.60;99.90
39099;DHT22;24844;52.380;7.018;2023-11-18T01:45:12;2.50;99.90
39099;DHT22;24844;52.380;7.018;2023-11-18T01:47:39;2.50;99.90
39099;DHT22;24844;52.380;7.018;2023-11-18T01:50:06;2.60;99.90
39099;DHT22;24844;52.380;7.018;2023-11-18T01:52:34;2.70;99.90
39099;DHT22;24844;52.380;7.018;2023-11-18T01:55:00;2.80;99.90
39099;DHT22;24844;52.380;7.018;2023-11-18T01:57:25;2.90;99.90
39099;DHT22;24844;52.380;7.018;2023-11-18T01:59:53;2.90;99.90
39099;DHT22;24844;52.380;7.018;2023-11-18T02:02:19;3.10;99.90
39099;DHT22;24844;52.380;7.018;2023-11-18T02:04:47;2.90;99.90
39099;DHT22;24844;52.380;7.018;2023-11-18T02:07:14;2.90;99.90
39099;DHT22;24844;52.380;7.018;2023-11-18T02:09:41;3.00;99.90
39099;DHT22;24844;52.380;7.018;2023-11-18T02:14:39;3.00;99.90
39099;DHT22;24844;52.380;7.018;2023-11-18T02:17:05;3.10;99.90
39099;DHT22;24844;52.380;7.018;2023-11-18T02:19:35;3.10;99.90
39099;DHT22;24844;52.380;7.018;2023-11-18T02:22:02;3.00;99.90
39099;DHT22;24844;52.380;7.018;2023-11-18T02:24:32;3.00;99.90
39099;DHT22;24844;52.380;7.018;2023-11-18T02:27:03;3.00;99.90
39099;DHT22;24844;52.380;7.018;2023-11-18T02:29:34;2.90;99.90
39099;DHT22;24844;52.380;7.018;2023-11-18T02:32:29;2.90;99.90
39099;DHT22;24844;52.380;7.018;2023-11-18T02:35:09;2.90;99.90
39099;DHT22;24844;52.380;7.018;2023-11-18T02:37:40;3.00;99.90
39099;DHT22;24844;52.380;7.018;2023-11-18T02:40:09;2.90;99.90
39099;DHT22;24844;52.380;7.018;2023-11-18T02:42:41;2.90;99.90
39099;DHT22;24844;52.380;7.018;2023-11-18T02:45:09;2.90;99.90
39099;DHT22;24844;52.380;7.018;2023-11-18T02:47:36;2.90;99.90
39099;DHT22;24844;52.380;7.018;2023-11-18T02:50:01;2.80;99.90
39099;DHT22;24844;52.380;7.018;2023-11-18T02:52:39;2.90;99.90
39099;DHT22;24844;52.380;7.018;2023-11-18T02:55:08;2.90;99.90
39099;DHT22;24844;52.380;7.018;2023-11-18T02:57:35;2.90;99.90
39099;DHT22;24844;52.380;7.018;2023-11-18T03:00:00;3.00;99.90
39099;DHT22;24844;52.380;7.018;2023-11-18T03:02:27;3.00;99.90
39099;DHT22;24844;52.380;7.018;2023-11-18T03:04:55;3.00;99.90
39099;DHT22;24844;52.380;7.018;2023-11-18T03:07:20;3.00;99.90
39099;DHT22;24844;52.380;7.018;2023-11-18T03:09:46;3.10;99.90
39099;DHT22;24844;52.380;7.018;2023-11-18T03:12:12;3.10;99.90
39099;DHT22;24844;52.380;7.018;2023-11-18T03:14:38;3.20;99.90
39099;DHT22;24844;52.380;7.018;2023-11-18T03:17:04;3.20;99.90
39099;DHT22;24844;52.380;7.018;2023-11-18T03:19:32;3.10;99.90
39099;DHT22;24844;52.380;7.018;2023-11-18T03:22:00;3.20;99.90
39099;DHT22;24844;52.380;7.018;2023-11-18T03:24:26;3.20;99.90
39099;DHT22;24844;52.380;7.018;2023-11-18T03:26:51;3.10;99.90
39099;DHT22;24844;52.380;7.018;2023-11-18T03:29:17;3.10;99.90
39099;DHT22;24844;52.380;7.018;2023-11-18T03:31:42;3.10;99.90
39099;DHT22;24844;52.380;7.018;2023-11-18T03:34:10;3.30;99.90
39099;DHT22;24844;52.380;7.018;2023-11-18T03:36:35;3.20;99.90
39099;DHT22;24844;52.380;7.018;2023-11-18T03:39:01;3.30;99.90
39099;DHT22;24844;52.380;7.018;2023-11-18T03:41:27;3.40;99.90
39099;DHT22;24844;52.380;7.018;2023-11-18T03:43:52;3.60;99.90
39099;DHT22;24844;52.380;7.018;2023-11-18T03:46:18;3.90;99.90
39099;DHT22;24844;52.380;7.018;2023-11-18T03:48:44;4.00;99.90
39099;DHT22;24844;52.380;7.018;2023-11-18T03:51:10;3.90;99.90
39099;DHT22;24844;52.380;7.018;2023-11-18T03:53:35;3.80;99.90
39099;DHT22;24844;52.380;7.018;2023-11-18T03:56:01;3.70;99.90
39099;DHT22;24844;52.380;7.018;2023-11-18T03:58:28;3.60;99.90
39099;DHT22;24844;52.380;7.018;2023-11-18T04:00:53;3.60;99.90
39099;DHT22;24844;52.380;7.018;2023-11-18T04:03:19;3.50;99.90
39099;DHT22;24844;52.380;7.018;2023-11-18T04:05:44;3.70;99.90
39099;DHT22;24844;52.380;7.018;2023-11-18T04:08:10;3.90;99.90
39099;DHT22;24844;52.380;7.018;2023-11-18T04:10:37;3.90;99.90
39099;DHT22;24844;52.380;7.018;2023-11-18T04:13:02;3.90;99.90
39099;DHT22;24844;52.380;7.018;2023-11-18T04:15:28;3.80;99.90
39099;DHT22;24844;52.380;7.018;2023-11-18T04:17:54;3.60;99.90
39099;DHT22;24844;52.380;7.018;2023-11-18T04:20:19;3.50;99.90
39099;DHT22;24844;52.380;7.018;2023-11-18T04:22:45;3.50;99.90
39099;DHT22;24844;52.380;7.018;2023-11-18T04:25:11;3.40;99.90
39099;DHT22;24844;52.380;7.018;2023-11-18T04:27:38;3.40;99.90
39099;DHT22;24844;52.380;7.018;2023-11-18T04:30:04;3.30;99.90
39099;DHT22;24844;52.380;7.018;2023-11-18T04:32:30;3.30;99.90
39099;DHT22;24844;52.380;7.018;2023-11-18T04:34:59;3.30;99.90
39099;DHT22;24844;52.380;7.018;2023-11-18T04:37:25;3.30;99.90
39099;DHT22;24844;52.380;7.018;2023-11-18T04:39:51;3.20;99.90
39099;DHT22;24844;52.380;7.018;2023-11-18T04:42:17;3.20;99.90
39099;DHT22;24844;52.380;7.018;2023-11-18T04:44:43;3.30;99.90
39099;DHT22;24844;52.380;7.018;2023-11-18T04:47:09;3.40;99.90
39099;DHT22;24844;52.380;7.018;2023-11-18T04:49:36;3.40;99.90
39099;DHT22;24844;52.380;7.018;2023-11-18T04:52:02;3.50;99.90
39099;DHT22;24844;52.380;7.018;2023-11-18T04:54:27;3.50;99.90
39099;DHT22;24844;52.380;7.018;2023-11-18T04:56:53;3.30;99.90
39099;DHT22;24844;52.380;7.018;2023-11-18T04:59:19;3.30;99.90
39099;DHT22;24844;52.380;7.018;2023-11-18T05:01:44;3.20;99.90
39099;DHT22;24844;52.380;7.018;2023-11-18T05:04:10;3.20;99.90
39099;DHT22;24844;52.380;7.018;2023-11-18T05:06:36;3.20;99.90
39099;DHT22;24844;52.380;7.018;2023-11-18T05:09:01;3.20;99.90
39099;DHT22;24844;52.380;7.018;2023-11-18T05:11:27;3.20;99.90
39099;DHT22;24844;52.380;7.018;2023-11-18T05:13:52;3.20;99.90
39099;DHT22;24844;52.380;7.018;2023-11-18T05:16:19;3.20;99.90
39099;DHT22;24844;52.380;7.018;2023-11-18T05:18:44;3.20;99.90
39099;DHT22;24844;52.380;7.018;2023-11-18T05:21:10;3.30;99.90
39099;DHT22;24844;52.380;7.018;2023-11-18T05:23:36;3.30;99.90
39099;DHT22;24844;52.380;7.018;2023-11-18T05:26:02;3.20;99.90
39099;DHT22;24844;52.380;7.018;2023-11-18T05:28:31;3.20;99.90
39099;DHT22;24844;52.380;7.018;2023-11-18T05:30:56;3.40;99.90
39099;DHT22;24844;52.380;7.018;2023-11-18T05:33:27;3.40;99.90
39099;DHT22;24844;52.380;7.018;2023-11-18T05:35:54;3.40;99.90
39099;DHT22;24844;52.380;7.018;2023-11-18T05:38:20;3.40;99.90
39099;DHT22;24844;52.380;7.018;2023-11-18T05:40:50;3.40;99.90
39099;DHT22;24844;52.380;7.018;2023-11-18T05:43:26;3.40;99.90
39099;DHT22;24844;52.380;7.018;2023-11-18T05:45:58;3.40;99.90
39099;DHT22;24844;52.380;7.018;2023-11-18T05:48:46;3.40;99.90
39099;DHT22;24844;52.380;7.018;2023-11-18T05:51:12;3.50;99.90
39099;DHT22;24844;52.380;7.018;2023-11-18T05:53:42;3.50;99.90
39099;DHT22;24844;52.380;7.018;2023-11-18T05:56:11;3.40;99.90
39099;DHT22;24844;52.380;7.018;2023-11-18T05:58:36;3.30;99.90
39099;DHT22;24844;52.380;7.018;2023-11-18T06:01:04;3.30;99.90
39099;DHT22;24844;52.380;7.018;2023-11-18T06:03:30;3.30;99.90
39099;DHT22;24844;52.380;7.018;2023-11-18T06:05:56;3.30;99.90
39099;DHT22;24844;52.380;7.018;2023-11-18T06:08:21;3.30;99.90
39099;DHT22;24844;52.380;7.018;2023-11-18T06:10:48;3.30;99.90
39099;DHT22;24844;52.380;7.018;2023-11-18T06:13:14;3.30;99.90
39099;DHT22;24844;52.380;7.018;2023-11-18T06:15:42;3.20;99.90
39099;DHT22;24844;52.380;7.018;2023-11-18T06:18:08;3.30;99.90
39099;DHT22;24844;52.380;7.018;2023-11-18T06:20:35;3.30;99.90
39099;DHT22;24844;52.380;7.018;2023-11-18T06:23:01;3.30;99.90
39099;DHT22;24844;52.380;7.018;2023-11-18T06:25:26;3.30;99.90
39099;DHT22;24844;52.380;7.018;2023-11-18T06:27:52;3.30;99.90
39099;DHT22;24844;52.380;7.018;2023-11-18T06:30:20;3.40;99.90
39099;DHT22;24844;52.380;7.018;2023-11-18T06:32:47;3.30;99.90
39099;DHT22;24844;52.380;7.018;2023-11-18T06:35:12;3.30;99.90
39099;DHT22;24844;52.380;7.018;2023-11-18T06:37:40;3.30;99.90
39099;DHT22;24844;52.380;7.018;2023-11-18T06:40:06;3.40;99.90
39099;DHT22;24844;52.380;7.018;2023-11-18T06:42:44;3.50;99.90
39099;DHT22;24844;52.380;7.018;2023-11-18T06:45:13;3.30;99.90
39099;DHT22;24844;52.380;7.018;2023-11-18T06:47:39;3.20;99.90
39099;DHT22;24844;52.380;7.018;2023-11-18T06:50:09;3.20;99.90
39099;DHT22;24844;52.380;7.018;2023-11-18T06:52:37;3.20;99.90
39099;DHT22;24844;52.380;7.018;2023-11-18T06:55:04;3.20;99.90
39099;DHT22;24844;52.380;7.018;2023-11-18T06:57:30;3.10;99.90
39099;DHT22;24844;52.380;7.018;2023-11-18T06:59:55;3.00;99.90
39099;DHT22;24844;52.380;7.018;2023-11-18T07:02:21;3.10;99.90
39099;DHT22;24844;52.380;7.018;2023-11-18T07:04:46;3.10;99.90
39099;DHT22;24844;52.380;7.018;2023-11-18T07:07:12;3.10;99.90
39099;DHT22;24844;52.380;7.018;2023-11-18T07:09:39;3.00;99.90
39099;DHT22;24844;52.380;7.018;2023-11-18T07:12:05;3.00;99.90
39099;DHT22;24844;52.380;7.018;2023-11-18T07:14:30;3.00;99.90
39099;DHT22;24844;52.380;7.018;2023-11-18T07:16:56;3.00;99.90
39099;DHT22;24844;52.380;7.018;2023-11-18T07:19:22;3.20;99.90
39099;DHT22;24844;52.380;7.018;2023-11-18T07:21:49;3.10;99.90
39099;DHT22;24844;52.380;7.018;2023-11-18T07:24:15;3.10;99.90
39099;DHT22;24844;52.380;7.018;2023-11-18T07:26:42;3.10;99.90
39099;DHT22;24844;52.380;7.018;2023-11-18T07:29:09;3.20;99.90
39099;DHT22;24844;52.380;7.018;2023-11-18T07:31:35;3.20;99.90
39099;DHT22;24844;52.380;7.018;2023-11-18T07:34:04;3.30;99.90
39099;DHT22;24844;52.380;7.018;2023-11-18T07:36:31;3.30;99.90
39099;DHT22;24844;52.380;7.018;2023-11-18T07:38:57;3.30;99.90
39099;DHT22;24844;52.380;7.018;2023-11-18T07:41:23;3.40;99.90
39099;DHT22;24844;52.380;7.018;2023-11-18T07:43:55;3.50;99.90
39099;DHT22;24844;52.380;7.018;2023-11-18T07:46:27;3.30;99.90
39099;DHT22;24844;52.380;7.018;2023-11-18T07:48:54;3.40;99.90
39099;DHT22;24844;52.380;7.018;2023-11-18T07:51:21;3.40;99.90
39099;DHT22;24844;52.380;7.018;2023-11-18T07:53:50;3.30;99.90
39099;DHT22;24844;52.380;7.018;2023-11-18T07:56:16;3.40;99.90
39099;DHT22;24844;52.380;7.018;2023-11-18T07:58:43;3.40;99.90
39099;DHT22;24844;52.380;7.018;2023-11-18T08:01:11;3.50;99.90
39099;DHT22;24844;52.380;7.018;2023-11-18T08:03:37;3.60;99.90
39099;DHT22;24844;52.380;7.018;2023-11-18T08:06:04;3.80;99.90
39099;DHT22;24844;52.380;7.018;2023-11-18T08:08:32;4.00;99.90
39099;DHT22;24844;52.380;7.018;2023-11-18T08:10:58;3.90;99.90
39099;DHT22;24844;52.380;7.018;2023-11-18T08:13:23;3.90;99.90
39099;DHT22;24844;52.380;7.018;2023-11-18T08:15:49;3.80;99.90
39099;DHT22;24844;52.380;7.018;2023-11-18T08:18:15;3.90;99.90
39099;DHT22;24844;52.380;7.018;2023-11-18T08:20:41;4.10;99.90
39099;DHT22;24844;52.380;7.018;2023-11-18T08:23:07;4.10;99.90
39099;DHT22;24844;52.380;7.018;2023-11-18T08:25:32;4.10;99.90
39099;DHT22;24844;52.380;7.018;2023-11-18T08:28:06;4.20;99.90
39099;DHT22;24844;52.380;7.018;2023-11-18T08:30:33;4.30;99.90
39099;DHT22;24844;52.380;7.018;2023-11-18T08:33:01;4.30;99.90
39099;DHT22;24844;52.380;7.018;2023-11-18T08:35:26;4.20;99.90
39099;DHT22;24844;52.380;7.018;2023-11-18T08:37:52;4.00;99.90
39099;DHT22;24844;52.380;7.018;2023-11-18T08:40:18;4.10;99.90
39099;DHT22;24844;52.380;7.018;2023-11-18T08:42:51;4.10;99.90
39099;DHT22;24844;52.380;7.018;2023-11-18T08:45:17;4.00;99.90
39099;DHT22;24844;52.380;7.018;2023-11-18T08:47:44;4.10;99.90
39099;DHT22;24844;52.380;7.018;2023-11-18T08:50:10;4.10;99.90
39099;DHT22;24844;52.380;7.018;2023-11-18T08:52:38;4.00;99.90
39099;DHT22;24844;52.380;7.018;2023-11-18T08:55:12;4.00;99.90
39099;DHT22;24844;52.380;7.018;2023-11-18T08:57:47;4.10;99.90
39099;DHT22;24844;52.380;7.018;2023-11-18T09:00:26;4.10;99.90
39099;DHT22;24844;52.380;7.018;2023-11-18T09:03:14;3.90;99.90
39099;DHT22;24844;52.380;7.018;2023-11-18T09:05:46;3.90;99.90
39099;DHT22;24844;52.380;7.018;2023-11-18T09:08:26;4.00;99.90
39099;DHT22;24844;52.380;7.018;2023-11-18T09:10:56;3.90;99.90
39099;DHT22;24844;52.380;7.018;2023-11-18T09:13:23;3.90;99.90
39099;DHT22;24844;52.380;7.018;2023-11-18T09:15:54;4.00;99.90
39099;DHT22;24844;52.380;7.018;2023-11-18T09:18:21;4.00;99.90
39099;DHT22;24844;52.380;7.018;2023-11-18T09:20:47;4.10;99.90
39099;DHT22;24844;52.380;7.018;2023-11-18T09:23:13;4.10;99.90
39099;DHT22;24844;52.380;7.018;2023-11-18T09:25:41;4.20;99.90
39099;DHT22;24844;52.380;7.018;2023-11-18T09:28:07;4.30;99.90
39099;DHT22;24844;52.380;7.018;2023-11-18T09:30:37;4.20;99.90
39099;DHT22;24844;52.380;7.018;2023-11-18T09:33:04;4.30;99.90
39099;DHT22;24844;52.380;7.018;2023-11-18T09:35:40;4.40;99.90
39099;DHT22;24844;52.380;7.018;2023-11-18T09:38:06;4.40;99.90
39099;DHT22;24844;52.380;7.018;2023-11-18T09:40:32;4.40;99.90
39099;DHT22;24844;52.380;7.018;2023-11-18T09:43:03;4.50;99.90
39099;DHT22;24844;52.380;7.018;2023-11-18T09:45:34;4.60;99.90
39099;DHT22;24844;52.380;7.018;2023-11-18T09:48:01;4.60;99.90
39099;DHT22;24844;52.380;7.018;2023-11-18T09:50:33;4.60;99.90
39099;DHT22;24844;52.380;7.018;2023-11-18T09:53:07;4.60;99.90
39099;DHT22;24844;52.380;7.018;2023-11-18T09:55:44;4.70;99.90
39099;DHT22;24844;52.380;7.018;2023-11-18T09:58:15;4.60;99.90
39099;DHT22;24844;52.380;7.018;2023-11-18T10:00:47;4.60;99.90
39099;DHT22;24844;52.380;7.018;2023-11-18T10:03:16;4.60;99.90
39099;DHT22;24844;52.380;7.018;2023-11-18T10:05:42;4.60;99.90
39099;DHT22;24844;52.380;7.018;2023-11-18T10:08:07;4.70;99.90
39099;DHT22;24844;52.380;7.018;2023-11-18T10:10:34;4.80;99.90
39099;DHT22;24844;52.380;7.018;2023-11-18T10:13:03;4.80;99.90
39099;DHT22;24844;52.380;7.018;2023-11-18T10:15:33;4.80;99.90
39099;DHT22;24844;52.380;7.018;2023-11-18T10:18:00;4.80;99.90
39099;DHT22;24844;52.380;7.018;2023-11-18T10:20:45;4.90;99.90
39099;DHT22;24844;52.380;7.018;2023-11-18T10:23:11;4.90;99.90
39099;DHT22;24844;52.380;7.018;2023-11-18T10:25:51;5.10;99.90
39099;DHT22;24844;52.380;7.018;2023-11-18T10:30:53;5.10;99.90
39099;DHT22;24844;52.380;7.018;2023-11-18T10:33:19;5.10;99.90
39099;DHT22;24844;52.380;7.018;2023-11-18T10:35:51;5.10;99.90
39099;DHT22;24844;52.380;7.018;2023-11-18T10:38:18;5.10;99.90
39099;DHT22;24844;52.380;7.018;2023-11-18T10:40:44;5.10;99.90
39099;DHT22;24844;52.380;7.018;2023-11-18T10:43:10;5.10;99.90
39099;DHT22;24844;52.380;7.018;2023-11-18T10:45:36;5.20;99.90
39099;DHT22;24844;52.380;7.018;2023-11-18T10:48:06;5.20;99.90
39099;DHT22;24844;52.380;7.018;2023-11-18T10:50:32;5.20;99.90
39099;DHT22;24844;52.380;7.018;2023-11-18T10:53:01;5.20;99.90
39099;DHT22;24844;52.380;7.018;2023-11-18T10:55:36;5.40;99.90
39099;DHT22;24844;52.380;7.018;2023-11-18T10:58:02;5.40;99.90
39099;DHT22;24844;52.380;7.018;2023-11-18T11:03:15;5.60;99.90
39099;DHT22;24844;52.380;7.018;2023-11-18T11:05:41;5.60;99.90
39099;DHT22;24844;52.380;7.018;2023-11-18T11:08:09;5.70;99.90
39099;DHT22;24844;52.380;7.018;2023-11-18T11:10:39;5.70;99.90
39099;DHT22;24844;52.380;7.018;2023-11-18T11:13:08;5.70;99.90
39099;DHT22;24844;52.380;7.018;2023-11-18T11:15:40;5.70;99.90
39099;DHT22;24844;52.380;7.018;2023-11-18T11:18:08;5.80;99.90
39099;DHT22;24844;52.380;7.018;2023-11-18T11:20:42;5.90;99.90
39099;DHT22;24844;52.380;7.018;2023-11-18T11:28:43;5.80;99.90
39099;DHT22;24844;52.380;7.018;2023-11-18T11:31:26;5.90;99.90
39099;DHT22;24844;52.380;7.018;2023-11-18T11:34:02;5.90;99.90
39099;DHT22;24844;52.380;7.018;2023-11-18T11:36:41;5.90;99.90
39099;DHT22;24844;52.380;7.018;2023-11-18T11:39:08;6.00;99.90
39099;DHT22;24844;52.380;7.018;2023-11-18T11:41:44;6.20;99.90
39099;DHT22;24844;52.380;7.018;2023-11-18T11:44:12;6.20;99.90
39099;DHT22;24844;52.380;7.018;2023-11-18T11:46:40;6.00;99.90
39099;DHT22;24844;52.380;7.018;2023-11-18T11:49:09;6.00;99.90
39099;DHT22;24844;52.380;7.018;2023-11-18T11:51:48;6.00;99.90
39099;DHT22;24844;52.380;7.018;2023-11-18T11:54:22;6.00;99.90
39099;DHT22;24844;52.380;7.018;2023-11-18T11:56:50;6.00;99.90
39099;DHT22;24844;52.380;7.018;2023-11-18T11:59:53;5.90;99.90
39099;DHT22;24844;52.380;7.018;2023-11-18T12:02:22;6.00;99.90
39099;DHT22;24844;52.380;7.018;2023-11-18T12:04:53;5.90;99.90
39099;DHT22;24844;52.380;7.018;2023-11-18T12:07:21;6.00;99.90
39099;DHT22;24844;52.380;7.018;2023-11-18T12:09:49;5.90;99.90
39099;DHT22;24844;52.380;7.018;2023-11-18T12:12:20;5.90;99.90
39099;DHT22;24844;52.380;7.018;2023-11-18T12:14:57;5.90;99.90
39099;DHT22;24844;52.380;7.018;2023-11-18T12:17:26;6.00;99.90
39099;DHT22;24844;52.380;7.018;2023-11-18T12:19:57;5.90;99.90
39099;DHT22;24844;52.380;7.018;2023-11-18T12:23:04;5.90;99.90
39099;DHT22;24844;52.380;7.018;2023-11-18T12:25:42;5.90;99.90
39099;DHT22;24844;52.380;7.018;2023-11-18T12:28:08;6.00;99.90
39099;DHT22;24844;52.380;7.018;2023-11-18T12:33:05;5.90;99.90
39099;DHT22;24844;52.380;7.018;2023-11-18T12:42:03;5.80;99.90
39099;DHT22;24844;52.380;7.018;2023-11-18T12:44:38;5.80;99.90
39099;DHT22;24844;52.380;7.018;2023-11-18T12:47:14;5.80;99.90
39099;DHT22;24844;52.380;7.018;2023-11-18T12:49:44;5.70;99.90
39099;DHT22;24844;52.380;7.018;2023-11-18T12:52:15;5.70;99.90
39099;DHT22;24844;52.380;7.018;2023-11-18T12:54:44;5.60;99.90
39099;DHT22;24844;52.380;7.018;2023-11-18T12:57:10;5.70;99.90
39099;DHT22;24844;52.380;7.018;2023-11-18T12:59:39;5.60;99.90
39099;DHT22;24844;52.380;7.018;2023-11-18T13:02:09;5.50;99.90
39099;DHT22;24844;52.380;7.018;2023-11-18T13:04:41;5.60;99.90
39099;DHT22;24844;52.380;7.018;2023-11-18T13:07:07;5.60;99.90
39099;DHT22;24844;52.380;7.018;2023-11-18T13:09:36;5.50;99.90
39099;DHT22;24844;52.380;7.018;2023-11-18T13:12:03;5.60;99.90
39099;DHT22;24844;52.380;7.018;2023-11-18T13:14:32;5.60;99.90
39099;DHT22;24844;52.380;7.018;2023-11-18T13:17:08;5.90;99.90
39099;DHT22;24844;52.380;7.018;2023-11-18T13:19:34;5.80;99.90
39099;DHT22;24844;52.380;7.018;2023-11-18T13:22:01;5.80;99.90
39099;DHT22;24844;52.380;7.018;2023-11-18T13:24:30;6.00;99.90
39099;DHT22;24844;52.380;7.018;2023-11-18T13:26:56;5.70;99.90
39099;DHT22;24844;52.380;7.018;2023-11-18T13:29:29;5.70;99.90
39099;DHT22;24844;52.380;7.018;2023-11-18T13:31:55;5.90;99.90
39099;DHT22;24844;52.380;7.018;2023-11-18T13:34:23;5.80;99.90
39099;DHT22;24844;52.380;7.018;2023-11-18T13:36:50;5.80;99.90
39099;DHT22;24844;52.380;7.018;2023-11-18T13:39:20;5.70;99.90
39099;DHT22;24844;52.380;7.018;2023-11-18T13:41:50;5.70;99.90
39099;DHT22;24844;52.380;7.018;2023-11-18T13:44:34;6.00;99.90
39099;DHT22;24844;52.380;7.018;2023-11-18T13:47:01;5.90;99.90
39099;DHT22;24844;52.380;7.018;2023-11-18T13:49:28;5.60;99.90
39099;DHT22;24844;52.380;7.018;2023-11-18T13:51:55;5.70;99.90
39099;DHT22;24844;52.380;7.018;2023-11-18T13:54:21;6.00;99.90
39099;DHT22;24844;52.380;7.018;2023-11-18T13:56:48;5.90;99.90
39099;DHT22;24844;52.380;7.018;2023-11-18T13:59:15;5.90;99.90
39099;DHT22;24844;52.380;7.018;2023-11-18T14:01:40;5.90;99.90
39099;DHT22;24844;52.380;7.018;2023-11-18T14:04:07;5.80;99.90
39099;DHT22;24844;52.380;7.018;2023-11-18T14:06:35;5.90;99.90
39099;DHT22;24844;52.380;7.018;2023-11-18T14:09:02;6.00;99.90
39099;DHT22;24844;52.380;7.018;2023-11-18T14:11:30;6.10;99.90
39099;DHT22;24844;52.380;7.018;2023-11-18T14:13:55;6.00;99.90
39099;DHT22;24844;52.380;7.018;2023-11-18T14:16:21;6.00;99.90
39099;DHT22;24844;52.380;7.018;2023-11-18T14:18:49;5.90;99.90
39099;DHT22;24844;52.380;7.018;2023-11-18T14:21:15;6.10;99.90
39099;DHT22;24844;52.380;7.018;2023-11-18T14:23:40;6.00;99.90
39099;DHT22;24844;52.380;7.018;2023-11-18T14:26:07;6.10;99.90
39099;DHT22;24844;52.380;7.018;2023-11-18T14:28:36;6.40;99.90
39099;DHT22;24844;52.380;7.018;2023-11-18T14:31:02;6.00;99.90
39099;DHT22;24844;52.380;7.018;2023-11-18T14:33:33;6.00;99.90
39099;DHT22;24844;52.380;7.018;2023-11-18T14:36:02;6.30;99.90
39099;DHT22;24844;52.380;7.018;2023-11-18T14:38:30;6.20;99.90
39099;DHT22;24844;52.380;7.018;2023-11-18T14:40:56;6.40;99.90
39099;DHT22;24844;52.380;7.018;2023-11-18T14:43:21;6.30;99.90
39099;DHT22;24844;52.380;7.018;2023-11-18T14:45:47;6.30;99.90
39099;DHT22;24844;52.380;7.018;2023-11-18T14:48:13;6.30;99.90
39099;DHT22;24844;52.380;7.018;2023-11-18T14:50:38;6.40;99.90
39099;DHT22;24844;52.380;7.018;2023-11-18T14:53:04;6.50;99.90
39099;DHT22;24844;52.380;7.018;2023-11-18T14:55:31;6.40;99.90
39099;DHT22;24844;52.380;7.018;2023-11-18T14:57:58;6.30;99.90
39099;DHT22;24844;52.380;7.018;2023-11-18T15:00:24;6.30;99.90
39099;DHT22;24844;52.380;7.018;2023-11-18T15:02:53;6.50;99.90
39099;DHT22;24844;52.380;7.018;2023-11-18T15:05:19;6.40;99.90
39099;DHT22;24844;52.380;7.018;2023-11-18T15:07:52;6.40;99.90
39099;DHT22;24844;52.380;7.018;2023-11-18T15:10:19;6.30;99.90
39099;DHT22;24844;52.380;7.018;2023-11-18T15:12:46;6.20;99.90
39099;DHT22;24844;52.380;7.018;2023-11-18T15:15:12;6.40;99.90
39099;DHT22;24844;52.380;7.018;2023-11-18T15:17:47;6.40;99.90
39099;DHT22;24844;52.380;7.018;2023-11-18T15:20:17;6.50;99.90
39099;DHT22;24844;52.380;7.018;2023-11-18T15:22:48;6.40;99.90
39099;DHT22;24844;52.380;7.018;2023-11-18T15:25:14;6.40;99.90
39099;DHT22;24844;52.380;7.018;2023-11-18T15:27:43;6.50;99.90
39099;DHT22;24844;52.380;7.018;2023-11-18T15:30:10;6.40;99.90
39099;DHT22;24844;52.380;7.018;2023-11-18T15:32:40;6.50;99.90
39099;DHT22;24844;52.380;7.018;2023-11-18T15:35:06;6.50;99.90
39099;DHT22;24844;52.380;7.018;2023-11-18T15:37:39;6.60;99.90
39099;DHT22;24844;52.380;7.018;2023-11-18T15:40:09;6.60;99.90
39099;DHT22;24844;52.380;7.018;2023-11-18T15:42:43;6.60;99.90
39099;DHT22;24844;52.380;7.018;2023-11-18T15:45:13;6.60;99.90
39099;DHT22;24844;52.380;7.018;2023-11-18T15:47:40;6.50;99.90
39099;DHT22;24844;52.380;7.018;2023-11-18T15:50:12;6.50;99.90
39099;DHT22;24844;52.380;7.018;2023-11-18T15:52:41;6.60;99.90
39099;DHT22;24844;52.380;7.018;2023-11-18T15:55:07;6.70;99.90
39099;DHT22;24844;52.380;7.018;2023-11-18T15:57:37;6.60;99.90
39099;DHT22;24844;52.380;7.018;2023-11-18T16:00:04;6.70;99.90
39099;DHT22;24844;52.380;7.018;2023-11-18T16:02:31;6.70;99.90
39099;DHT22;24844;52.380;7.018;2023-11-18T16:04:56;6.60;99.90
39099;DHT22;24844;52.380;7.018;2023-11-18T16:07:22;6.60;99.90
39099;DHT22;24844;52.380;7.018;2023-11-18T16:09:48;6.60;99.90
39099;DHT22;24844;52.380;7.018;2023-11-18T16:12:14;6.70;99.90